createdAt,value
2019-02-02T00:02:23.721Z,2.47
2019-02-02T00:04:50.151Z,2.48
2019-02-02T00:07:16.015Z,2.29
2019-02-02T00:09:41.862Z,2.35
2019-02-02T00:12:08.136Z,2.41
2019-02-02T00:14:34.013Z,2.50
2019-02-02T00:17:00.003Z,2.61
2019-02-02T00:19:25.867Z,2.48
2019-02-02T00:21:51.829Z,2.48
2019-02-02T00:24:17.984Z,2.39
2019-02-02T00:26:47.259Z,2.52
2019-02-02T00:29:14.148Z,2.59
2019-02-02T00:31:40.235Z,2.55
2019-02-02T00:34:06.129Z,2.57
2019-02-02T00:36:32.076Z,2.59
2019-02-02T00:38:58.054Z,2.58
2019-02-02T00:41:23.991Z,2.53
2019-02-02T00:43:52.823Z,2.55
2019-02-02T00:46:18.879Z,2.58
2019-02-02T00:48:44.852Z,2.61
2019-02-02T00:51:11.198Z,2.63
2019-02-02T00:53:37.145Z,2.75
2019-02-02T00:56:08.611Z,2.57
2019-02-02T00:58:36.399Z,2.67
2019-02-02T01:01:03.862Z,2.66
2019-02-02T01:03:48.768Z,2.68
2019-02-02T01:06:15.671Z,2.74
2019-02-02T01:08:41.622Z,2.72
2019-02-02T01:11:10.417Z,2.80
2019-02-02T01:13:36.605Z,2.81
2019-02-02T01:16:02.956Z,2.83
2019-02-02T01:18:31.897Z,2.60
2019-02-02T01:21:04.044Z,2.75
2019-02-02T01:23:29.910Z,2.75
2019-02-02T01:25:55.969Z,2.75
2019-02-02T01:28:21.932Z,2.72
2019-02-02T01:30:47.890Z,2.56
2019-02-02T01:33:18.346Z,2.65
2019-02-02T01:35:44.210Z,2.71
2019-02-02T01:38:10.149Z,2.80
2019-02-02T01:40:36.522Z,2.83
2019-02-02T01:43:02.879Z,2.88
2019-02-02T01:45:28.730Z,2.86
2019-02-02T01:47:55.676Z,2.79
2019-02-02T01:50:24.032Z,2.81
2019-02-02T01:52:49.968Z,2.80
2019-02-02T01:55:16.834Z,2.72
2019-02-02T01:57:42.864Z,2.72
2019-02-02T02:00:17.524Z,2.76
2019-02-02T02:02:43.457Z,2.73
2019-02-02T02:05:09.592Z,2.74
2019-02-02T02:07:35.447Z,2.78
2019-02-02T02:10:02.502Z,2.80
2019-02-02T02:12:28.343Z,2.81
2019-02-02T02:14:54.152Z,2.85
2019-02-02T02:17:20.004Z,2.90
2019-02-02T02:19:45.841Z,2.91
2019-02-02T02:22:11.685Z,2.92
2019-02-02T02:24:37.512Z,2.92
2019-02-02T02:27:03.452Z,2.96
2019-02-02T02:29:29.265Z,2.97
2019-02-02T02:31:55.104Z,3.02
2019-02-02T02:34:21.055Z,2.97
2019-02-02T02:36:46.896Z,3.00
2019-02-02T02:39:12.708Z,3.06
2019-02-02T02:41:38.656Z,3.10
2019-02-02T02:44:04.575Z,3.12
2019-02-02T02:46:30.400Z,3.14
2019-02-02T02:48:56.245Z,3.14
2019-02-02T02:51:22.054Z,3.21
2019-02-02T02:53:47.901Z,3.20
2019-02-02T02:56:13.724Z,3.18
2019-02-02T02:58:41.537Z,3.17
2019-02-02T03:01:07.280Z,3.18
2019-02-02T03:03:33.113Z,3.24
2019-02-02T03:05:58.936Z,3.31
2019-02-02T03:08:24.780Z,3.24
2019-02-02T03:10:50.598Z,3.21
2019-02-02T03:13:16.516Z,3.20
2019-02-02T03:15:42.336Z,3.24
2019-02-02T03:18:08.291Z,3.19
2019-02-02T03:20:34.109Z,3.19
2019-02-02T03:23:00.027Z,3.25
2019-02-02T03:25:26.107Z,3.28
2019-02-02T03:27:52.004Z,3.25
2019-02-02T03:30:19.958Z,3.21
2019-02-02T03:32:45.813Z,3.16
2019-02-02T03:35:14.343Z,3.25
2019-02-02T03:37:40.271Z,3.21
2019-02-02T03:40:12.610Z,3.15
2019-02-02T03:42:39.030Z,3.06
2019-02-02T03:45:07.489Z,2.96
2019-02-02T03:47:33.304Z,3.03
2019-02-02T03:49:59.148Z,3.08
2019-02-02T03:52:24.979Z,3.17
2019-02-02T03:54:50.819Z,3.25
2019-02-02T03:57:16.625Z,3.25
2019-02-02T03:59:42.461Z,3.21
2019-02-02T04:02:08.304Z,3.23
2019-02-02T04:04:34.142Z,3.16
2019-02-02T04:07:00.206Z,3.23
2019-02-02T04:09:26.132Z,3.22
2019-02-02T04:11:51.981Z,3.22
2019-02-02T04:14:17.992Z,3.26
2019-02-02T04:16:43.836Z,3.18
2019-02-02T04:19:09.755Z,3.18
2019-02-02T04:21:35.621Z,3.23
2019-02-02T04:24:01.540Z,3.29
2019-02-02T04:26:27.383Z,3.28
2019-02-02T04:28:53.197Z,3.31
2019-02-02T04:31:19.138Z,3.28
2019-02-02T04:33:44.987Z,3.22
2019-02-02T04:36:10.955Z,3.16
2019-02-02T04:38:36.771Z,3.14
2019-02-02T04:41:02.698Z,3.18
2019-02-02T04:43:28.628Z,3.24
2019-02-02T04:45:54.452Z,3.07
2019-02-02T04:48:20.283Z,3.18
2019-02-02T04:50:46.211Z,3.21
2019-02-02T04:53:12.050Z,3.21
2019-02-02T04:55:37.868Z,3.22
2019-02-02T04:58:03.867Z,3.22
2019-02-02T05:00:29.656Z,3.23
2019-02-02T05:02:55.529Z,3.28
2019-02-02T05:05:21.449Z,3.26
2019-02-02T05:07:47.432Z,3.29
2019-02-02T05:10:15.956Z,3.28
2019-02-02T05:12:41.797Z,3.29
2019-02-02T05:15:08.142Z,3.23
2019-02-02T05:17:34.474Z,3.20
2019-02-02T05:20:00.372Z,3.22
2019-02-02T05:22:26.192Z,3.29
2019-02-02T05:24:52.033Z,3.31
2019-02-02T05:27:17.997Z,3.31
2019-02-02T05:29:43.956Z,3.26
2019-02-02T05:32:09.788Z,3.18
2019-02-02T05:34:35.656Z,3.17
2019-02-02T05:37:01.492Z,3.20
2019-02-02T05:39:27.450Z,3.25
2019-02-02T05:41:53.270Z,3.33
2019-02-02T05:44:19.231Z,3.32
2019-02-02T05:46:45.092Z,3.35
2019-02-02T05:49:10.947Z,3.32
2019-02-02T05:51:36.778Z,3.20
2019-02-02T05:54:03.411Z,3.07
2019-02-02T05:56:29.243Z,3.09
2019-02-02T05:58:55.060Z,3.14
2019-02-02T06:01:21.405Z,3.18
2019-02-02T06:03:47.219Z,3.22
2019-02-02T06:06:13.181Z,3.22
2019-02-02T06:08:39.118Z,3.25
2019-02-02T06:11:04.953Z,3.25
2019-02-02T06:13:30.774Z,3.26
2019-02-02T06:15:56.845Z,3.28
2019-02-02T06:18:22.950Z,3.31
2019-02-02T06:20:48.802Z,3.35
2019-02-02T06:23:14.668Z,3.38
2019-02-02T06:25:40.514Z,3.38
2019-02-02T06:28:06.428Z,3.23
2019-02-02T06:30:32.375Z,3.15
2019-02-02T06:32:58.227Z,3.18
2019-02-02T06:35:24.570Z,3.22
2019-02-02T06:37:50.399Z,3.26
2019-02-02T06:40:16.840Z,3.29
2019-02-02T06:42:42.796Z,3.31
2019-02-02T06:45:21.183Z,3.33
2019-02-02T06:47:47.151Z,3.34
2019-02-02T06:50:15.295Z,3.32
2019-02-02T06:52:41.224Z,3.33
2019-02-02T06:55:09.970Z,3.28
2019-02-02T06:57:35.814Z,3.31
2019-02-02T07:00:02.634Z,3.27
2019-02-02T07:02:28.491Z,3.31
2019-02-02T07:04:54.355Z,3.32
2019-02-02T07:07:20.202Z,3.21
2019-02-02T07:09:46.080Z,3.29
2019-02-02T07:12:11.935Z,3.32
2019-02-02T07:14:37.775Z,3.34
2019-02-02T07:17:03.592Z,3.36
2019-02-02T07:19:29.522Z,3.40
2019-02-02T07:21:55.477Z,3.40
2019-02-02T07:24:21.286Z,3.42
2019-02-02T07:26:47.113Z,3.43
2019-02-02T07:29:12.984Z,3.42
2019-02-02T07:31:38.909Z,3.46
2019-02-02T07:34:05.120Z,3.43
2019-02-02T07:36:30.944Z,3.38
2019-02-02T07:38:56.797Z,3.49
2019-02-02T07:41:22.703Z,3.59
2019-02-02T07:43:48.582Z,3.65
2019-02-02T07:46:15.276Z,3.71
2019-02-02T07:48:41.504Z,3.77
2019-02-02T07:51:07.360Z,3.81
2019-02-02T07:53:33.191Z,3.88
2019-02-02T07:55:59.136Z,3.94
2019-02-02T07:58:24.976Z,3.87
2019-02-02T08:00:50.954Z,3.88
2019-02-02T08:03:16.931Z,3.95
2019-02-02T08:05:42.860Z,3.94
2019-02-02T08:08:08.803Z,3.95
2019-02-02T08:10:34.868Z,3.93
2019-02-02T08:13:01.133Z,3.95
2019-02-02T08:15:29.971Z,4.06
2019-02-02T08:17:55.903Z,4.09
2019-02-02T08:20:21.842Z,4.16
2019-02-02T08:22:47.799Z,4.22
2019-02-02T08:25:14.834Z,4.30
2019-02-02T08:27:40.901Z,4.33
2019-02-02T08:30:25.107Z,4.31
2019-02-02T08:32:51.374Z,4.31
2019-02-02T08:35:17.217Z,4.22
2019-02-02T08:37:43.165Z,4.19
2019-02-02T08:40:12.526Z,4.04
2019-02-02T08:42:38.487Z,4.10
2019-02-02T08:45:06.746Z,4.13
2019-02-02T08:47:32.909Z,4.16
2019-02-02T08:49:58.861Z,4.19
2019-02-02T08:52:24.693Z,4.15
2019-02-02T08:54:50.536Z,4.21
2019-02-02T08:57:16.405Z,4.23
2019-02-02T08:59:42.248Z,4.03
2019-02-02T09:02:08.247Z,4.14
2019-02-02T09:04:34.144Z,4.23
2019-02-02T09:06:59.989Z,4.19
2019-02-02T09:09:25.925Z,4.31
2019-02-02T09:11:51.814Z,4.34
2019-02-02T09:14:17.739Z,4.41
2019-02-02T09:16:43.588Z,4.38
2019-02-02T09:19:09.422Z,4.35
2019-02-02T09:21:35.275Z,4.14
2019-02-02T09:24:01.100Z,4.40
2019-02-02T09:26:26.953Z,4.56
2019-02-02T09:28:52.866Z,4.66
2019-02-02T09:31:18.816Z,4.67
2019-02-02T09:33:44.716Z,4.67
2019-02-02T09:36:10.570Z,4.41
2019-02-02T09:38:39.408Z,4.53
2019-02-02T09:41:05.348Z,4.66
2019-02-02T09:43:31.203Z,4.60
2019-02-02T09:45:57.098Z,4.83
2019-02-02T09:48:23.287Z,4.97
2019-02-02T09:50:49.120Z,5.33
2019-02-02T09:53:15.026Z,5.51
2019-02-02T09:55:40.960Z,5.72
2019-02-02T09:58:08.892Z,5.90
2019-02-02T10:00:34.920Z,5.95
2019-02-02T10:03:01.103Z,6.02
2019-02-02T10:05:28.201Z,6.01
2019-02-02T10:07:54.256Z,6.33
2019-02-02T10:10:22.318Z,6.54
2019-02-02T10:12:48.208Z,6.54
2019-02-02T10:15:15.672Z,6.68
2019-02-02T10:17:41.625Z,6.76
2019-02-02T10:20:11.286Z,6.76
2019-02-02T10:22:37.358Z,6.84
2019-02-02T10:25:07.049Z,7.02
2019-02-02T10:27:33.003Z,7.13
2019-02-02T10:29:59.352Z,7.29
2019-02-02T10:32:25.192Z,7.39
2019-02-02T10:34:51.075Z,7.58
2019-02-02T10:37:16.924Z,7.58
2019-02-02T10:39:42.917Z,7.59
2019-02-02T10:42:08.754Z,7.73
2019-02-02T10:44:34.871Z,7.74
2019-02-02T10:47:00.820Z,7.52
2019-02-02T10:49:26.712Z,7.55
2019-02-02T10:51:52.644Z,7.68
2019-02-02T10:54:18.589Z,7.44
2019-02-02T10:56:44.455Z,7.21
2019-02-02T10:59:10.291Z,7.43
2019-02-02T11:01:36.254Z,7.30
2019-02-02T11:04:02.192Z,7.29
2019-02-02T11:06:28.242Z,7.22
2019-02-02T11:08:54.166Z,7.23
2019-02-02T11:11:20.177Z,7.17
2019-02-02T11:13:46.071Z,7.08
2019-02-02T11:16:11.990Z,6.93
2019-02-02T11:18:38.002Z,6.95
2019-02-02T11:21:04.142Z,6.87
2019-02-02T11:23:30.266Z,6.76
2019-02-02T11:25:56.082Z,6.69
2019-02-02T11:28:22.072Z,6.65
2019-02-02T11:30:48.254Z,6.64
2019-02-02T11:33:14.293Z,6.62
2019-02-02T11:35:40.226Z,6.55
2019-02-02T11:38:06.309Z,6.53
2019-02-02T11:40:33.970Z,6.56
2019-02-02T11:43:00.040Z,6.54
2019-02-02T11:45:25.976Z,6.54
2019-02-02T11:47:54.775Z,6.49
2019-02-02T11:50:21.430Z,6.44
2019-02-02T11:52:47.817Z,6.37
2019-02-02T11:55:16.786Z,6.29
2019-02-02T11:57:42.784Z,6.16
2019-02-02T12:00:12.455Z,6.16
2019-02-02T12:02:48.838Z,5.97
2019-02-02T12:05:06.586Z,5.78
2019-02-02T12:07:32.481Z,5.41
2019-02-02T12:09:58.272Z,5.42
2019-02-02T12:12:24.232Z,5.51
2019-02-02T12:14:50.078Z,5.46
2019-02-02T12:17:15.922Z,5.38
2019-02-02T12:19:41.774Z,5.16
2019-02-02T12:22:07.733Z,5.15
2019-02-02T12:24:33.608Z,5.02
2019-02-02T12:26:59.453Z,4.94
2019-02-02T12:29:25.312Z,5.13
2019-02-02T12:31:51.155Z,5.21
2019-02-02T12:34:17.207Z,5.29
2019-02-02T12:36:43.105Z,5.34
2019-02-02T12:39:09.470Z,5.44
2019-02-02T12:41:35.290Z,5.54
2019-02-02T12:44:01.138Z,5.61
2019-02-02T12:46:26.991Z,5.70
2019-02-02T12:48:52.856Z,5.72
2019-02-02T12:51:18.704Z,5.62
2019-02-02T12:53:44.587Z,5.74
2019-02-02T12:56:10.409Z,5.71
2019-02-02T12:58:36.356Z,5.52
2019-02-02T13:01:02.391Z,5.54
2019-02-02T13:03:30.131Z,5.56
2019-02-02T13:05:56.011Z,5.44
2019-02-02T13:08:21.856Z,5.35
2019-02-02T13:10:47.694Z,5.54
2019-02-02T13:13:13.511Z,5.60
2019-02-02T13:15:39.495Z,5.61
2019-02-02T13:18:05.313Z,5.63
2019-02-02T13:20:31.300Z,5.72
2019-02-02T13:22:57.159Z,5.70
2019-02-02T13:25:23.111Z,5.88
2019-02-02T13:27:49.014Z,6.04
2019-02-02T13:30:21.696Z,6.09
2019-02-02T13:32:49.797Z,6.12
2019-02-02T13:35:16.908Z,5.96
2019-02-02T13:37:42.966Z,5.86
2019-02-02T13:40:12.416Z,5.82
2019-02-02T13:42:38.401Z,5.75
2019-02-02T13:45:07.091Z,5.70
2019-02-02T13:47:33.202Z,5.70
2019-02-02T13:49:59.075Z,5.66
2019-02-02T13:52:24.895Z,5.67
2019-02-02T13:54:50.717Z,5.59
2019-02-02T13:57:16.564Z,5.44
2019-02-02T13:59:42.395Z,5.28
2019-02-02T14:02:08.262Z,5.24
2019-02-02T14:04:34.111Z,5.24
2019-02-02T14:07:00.051Z,5.20
2019-02-02T14:09:25.884Z,5.16
2019-02-02T14:11:51.777Z,5.22
2019-02-02T14:14:17.719Z,5.24
2019-02-02T14:16:43.624Z,5.25
2019-02-02T14:19:09.549Z,5.20
2019-02-02T14:21:35.489Z,5.24
2019-02-02T14:24:02.050Z,5.17
2019-02-02T14:26:27.895Z,5.13
2019-02-02T14:28:53.771Z,5.05
2019-02-02T14:31:19.713Z,4.98
2019-02-02T14:33:45.592Z,4.78
2019-02-02T14:36:11.589Z,4.71
2019-02-02T14:38:37.430Z,4.78
2019-02-02T14:41:03.378Z,4.86
2019-02-02T14:43:29.363Z,4.78
2019-02-02T14:45:55.292Z,4.74
2019-02-02T14:48:21.314Z,4.70
2019-02-02T14:50:47.254Z,4.65
2019-02-02T14:53:16.249Z,4.63
2019-02-02T14:55:42.680Z,4.52
2019-02-02T14:58:08.639Z,4.58
2019-02-02T15:00:36.494Z,4.53
2019-02-02T15:03:03.321Z,4.51
2019-02-02T15:05:42.095Z,4.37
2019-02-02T15:07:57.864Z,4.36
2019-02-02T15:10:23.832Z,4.35
2019-02-02T15:12:50.056Z,4.29
2019-02-02T15:15:18.488Z,4.23
2019-02-02T15:17:44.742Z,4.22
2019-02-02T15:20:32.710Z,4.20
2019-02-02T15:22:58.692Z,4.16
2019-02-02T15:25:24.549Z,4.14
2019-02-02T15:27:50.954Z,4.11
2019-02-02T15:30:22.194Z,4.11
2019-02-02T15:32:48.119Z,4.03
2019-02-02T15:35:14.381Z,4.03
2019-02-02T15:37:40.613Z,3.89
2019-02-02T15:40:10.133Z,3.86
2019-02-02T15:42:35.955Z,3.83
2019-02-02T15:45:04.623Z,3.79
2019-02-02T15:47:30.613Z,3.71
2019-02-02T15:49:56.584Z,3.68
2019-02-02T15:52:22.511Z,3.63
2019-02-02T15:54:48.341Z,3.62
2019-02-02T15:57:14.209Z,3.60
2019-02-02T15:59:40.062Z,3.57
2019-02-02T16:02:05.949Z,3.50
2019-02-02T16:04:31.884Z,3.51
2019-02-02T16:06:58.056Z,3.51
2019-02-02T16:09:24.028Z,3.47
2019-02-02T16:11:49.899Z,3.48
2019-02-02T16:14:15.737Z,3.47
2019-02-02T16:16:41.609Z,3.43
2019-02-02T16:19:07.601Z,3.29
2019-02-02T16:21:33.594Z,3.28
2019-02-02T16:23:59.425Z,3.26
2019-02-02T16:26:25.433Z,3.25
2019-02-02T16:28:51.402Z,3.28
2019-02-02T16:31:17.270Z,3.21
2019-02-02T16:33:43.298Z,3.17
2019-02-02T16:36:09.189Z,3.17
2019-02-02T16:38:35.066Z,3.18
2019-02-02T16:41:00.906Z,3.12
2019-02-02T16:43:26.779Z,3.11
2019-02-02T16:45:52.599Z,3.08
2019-02-02T16:48:18.589Z,3.04
2019-02-02T16:50:44.550Z,2.97
2019-02-02T16:53:10.530Z,3.00
2019-02-02T16:55:36.357Z,3.03
2019-02-02T16:58:03.473Z,3.02
2019-02-02T17:00:32.240Z,2.96
2019-02-02T17:02:58.206Z,2.92
2019-02-02T17:05:25.457Z,3.02
2019-02-02T17:07:51.536Z,3.08
2019-02-02T17:10:25.539Z,3.09
2019-02-02T17:12:51.512Z,3.02
2019-02-02T17:15:17.355Z,3.07
2019-02-02T17:17:43.798Z,3.07
2019-02-02T17:20:21.565Z,3.04
2019-02-02T17:22:47.527Z,3.06
2019-02-02T17:25:17.043Z,3.02
2019-02-02T17:27:43.640Z,2.91
2019-02-02T17:30:15.623Z,2.99
2019-02-02T17:32:41.697Z,2.91
2019-02-02T17:35:10.593Z,2.95
2019-02-02T17:37:36.567Z,3.00
2019-02-02T17:40:06.173Z,2.98
2019-02-02T17:42:32.002Z,2.98
2019-02-02T17:44:57.862Z,3.02
2019-02-02T17:47:23.853Z,3.01
2019-02-02T17:49:49.821Z,3.01
2019-02-02T17:52:15.649Z,2.99
2019-02-02T17:54:41.601Z,2.99
2019-02-02T17:57:07.548Z,2.97
2019-02-02T17:59:33.432Z,2.91
2019-02-02T18:01:59.369Z,2.97
2019-02-02T18:04:26.621Z,2.97
2019-02-02T18:06:52.999Z,2.97
2019-02-02T18:09:18.932Z,2.95
2019-02-02T18:11:44.819Z,2.92
2019-02-02T18:14:10.776Z,2.90
2019-02-02T18:16:36.829Z,2.92
2019-02-02T18:19:03.077Z,2.94
2019-02-02T18:21:29.052Z,2.96
2019-02-02T18:23:54.895Z,2.91
2019-02-02T18:26:20.787Z,2.93
2019-02-02T18:28:46.648Z,2.93
2019-02-02T18:31:12.545Z,2.90
2019-02-02T18:33:38.372Z,2.91
2019-02-02T18:36:04.374Z,2.87
2019-02-02T18:38:30.221Z,2.84
2019-02-02T18:40:56.265Z,2.80
2019-02-02T18:43:22.302Z,2.81
2019-02-02T18:45:48.276Z,2.78
2019-02-02T18:48:14.155Z,2.79
2019-02-02T18:50:40.069Z,2.80
2019-02-02T18:53:06.134Z,2.77
2019-02-02T18:55:41.729Z,2.71
2019-02-02T18:58:07.843Z,2.81
2019-02-02T19:00:33.924Z,2.81
2019-02-02T19:02:59.881Z,2.81
2019-02-02T19:05:28.865Z,2.78
2019-02-02T19:07:53.639Z,2.85
2019-02-02T19:10:28.997Z,2.79
2019-02-02T19:12:55.132Z,2.88
2019-02-02T19:15:20.996Z,2.87
2019-02-02T19:17:47.004Z,2.87
2019-02-02T19:20:18.786Z,2.82
2019-02-02T19:22:44.822Z,2.80
2019-02-02T19:25:10.778Z,2.80
2019-02-02T19:27:36.646Z,2.84
2019-02-02T19:30:06.311Z,2.81
2019-02-02T19:32:34.041Z,2.80
2019-02-02T19:34:59.944Z,2.78
2019-02-02T19:37:25.786Z,2.80
2019-02-02T19:39:53.970Z,2.75
2019-02-02T19:42:19.800Z,2.77
2019-02-02T19:44:45.666Z,2.77
2019-02-02T19:47:16.201Z,2.78
2019-02-02T19:49:39.381Z,2.76
2019-02-02T19:52:05.339Z,2.74
2019-02-02T19:54:31.318Z,2.77
2019-02-02T19:56:57.184Z,2.79
2019-02-02T19:59:23.129Z,2.79
2019-02-02T20:01:49.052Z,2.73
2019-02-02T20:04:14.924Z,2.80
2019-02-02T20:06:40.794Z,2.85
2019-02-02T20:09:06.641Z,2.76
2019-02-02T20:11:32.613Z,2.76
2019-02-02T20:13:58.562Z,2.75
2019-02-02T20:16:24.458Z,2.73
2019-02-02T20:18:50.447Z,2.75
2019-02-02T20:21:16.343Z,2.80
2019-02-02T20:23:42.280Z,2.79
2019-02-02T20:26:08.173Z,2.78
2019-02-02T20:28:34.035Z,2.73
2019-02-02T20:31:00.143Z,2.74
2019-02-02T20:33:26.155Z,2.76
2019-02-02T20:35:52.134Z,2.70
2019-02-02T20:38:18.029Z,2.68
2019-02-02T20:40:44.050Z,2.73
2019-02-02T20:43:10.029Z,2.75
2019-02-02T20:45:37.411Z,2.75
2019-02-02T20:48:04.265Z,2.79
2019-02-02T20:50:30.283Z,2.74
2019-02-02T20:52:56.249Z,2.75
2019-02-02T20:55:24.880Z,2.79
2019-02-02T20:57:51.496Z,2.79
2019-02-02T21:00:21.055Z,2.80
2019-02-02T21:02:47.126Z,2.79
2019-02-02T21:05:13.475Z,2.78
2019-02-02T21:07:39.425Z,2.81
2019-02-02T21:10:09.100Z,2.80
2019-02-02T21:12:35.497Z,2.83
2019-02-02T21:15:01.362Z,2.81
2019-02-02T21:17:27.229Z,2.76
2019-02-02T21:19:53.097Z,2.73
2019-02-02T21:22:18.939Z,2.75
2019-02-02T21:24:44.756Z,2.71
2019-02-02T21:27:10.721Z,2.75
2019-02-02T21:29:37.254Z,2.74
2019-02-02T21:32:03.139Z,2.78
2019-02-02T21:34:29.085Z,2.78
2019-02-02T21:36:54.986Z,2.80
2019-02-02T21:39:20.896Z,2.85
2019-02-02T21:41:46.725Z,2.80
2019-02-02T21:44:15.569Z,2.76
2019-02-02T21:46:41.800Z,2.83
2019-02-02T21:49:07.888Z,2.80
2019-02-02T21:51:33.896Z,2.82
2019-02-02T21:53:59.867Z,2.82
2019-02-02T21:56:25.719Z,2.83
2019-02-02T21:58:51.583Z,2.82
2019-02-02T22:01:24.320Z,2.78
2019-02-02T22:03:45.500Z,2.77
2019-02-02T22:06:15.459Z,2.79
2019-02-02T22:08:39.315Z,2.71
2019-02-02T22:11:05.198Z,2.75
2019-02-02T22:13:31.216Z,2.69
2019-02-02T22:15:57.073Z,2.71
2019-02-02T22:18:22.912Z,2.64
2019-02-02T22:20:49.255Z,2.68
2019-02-02T22:23:15.093Z,2.69
2019-02-02T22:25:40.962Z,2.72
2019-02-02T22:28:06.904Z,2.71
2019-02-02T22:30:35.681Z,2.76
2019-02-02T22:33:01.499Z,2.75
2019-02-02T22:35:27.534Z,2.69
2019-02-02T22:37:54.139Z,2.67
2019-02-02T22:40:22.416Z,2.72
2019-02-02T22:42:48.383Z,2.74
2019-02-02T22:45:16.052Z,2.67
2019-02-02T22:47:42.029Z,2.70
2019-02-02T22:50:11.415Z,2.74
2019-02-02T22:52:37.290Z,2.77
2019-02-02T22:55:07.146Z,2.70
2019-02-02T22:57:32.994Z,2.71
2019-02-02T22:59:58.826Z,2.74
2019-02-02T23:02:25.136Z,2.74
2019-02-02T23:04:57.808Z,2.59
2019-02-02T23:07:27.463Z,2.73
2019-02-02T23:10:16.908Z,2.75
2019-02-02T23:12:49.719Z,2.78
2019-02-02T23:15:35.912Z,2.76
2019-02-02T23:18:01.895Z,2.74
2019-02-02T23:20:27.836Z,2.79
2019-02-02T23:22:53.701Z,2.73
2019-02-02T23:25:19.648Z,2.76
2019-02-02T23:27:45.605Z,2.73
2019-02-02T23:30:14.231Z,2.70
2019-02-02T23:32:40.212Z,2.63
2019-02-02T23:35:06.284Z,2.65
2019-02-02T23:37:32.127Z,2.65
2019-02-02T23:39:57.964Z,2.62
2019-02-02T23:42:23.818Z,2.55
2019-02-02T23:44:49.669Z,2.53
2019-02-02T23:47:16.028Z,2.51
2019-02-02T23:49:41.875Z,2.60
2019-02-02T23:52:07.809Z,2.59
2019-02-02T23:54:33.775Z,2.65
2019-02-02T23:56:59.753Z,2.69
2019-02-02T23:59:25.756Z,2.69
